Orbital elements of FENGYUN 1C DEB
| Launched | 9 May 1999 |
| Flight ended | – |
| Launch site | Taiyuan Space Center, PRC |
| Owner | People's Republic of China |
| NORAD ID | 32464 |
| Date fetched |
Epoch osculation |
Inc. [°] |
Ecc. | RA asc node [hr] |
Arg Peri. [°] |
Mean anom [°] |
Mean motion [rev/day] |
Abs. mag |
| Date fetched |
Epoch osculation |
Inc. [°] |
Ecc. | RA asc node [hr] |
Arg Peri. [°] |
Mean anom [°] |
Mean motion [rev/day] |
Abs. mag |
| 2026 May 03 17:57 | 2026 Apr 26 18:51:46 | 97.3412 | 0.01061 | 9.1824 | 140.8208 | 220.0760 | 14.97413 | – |
| 2026 May 02 17:57 | 2026 Apr 26 18:51:46 | 97.3412 | 0.01061 | 9.1824 | 140.8208 | 220.0760 | 14.97413 | – |
| 2026 May 01 17:56 | 2026 Apr 26 18:51:46 | 97.3412 | 0.01061 | 9.1824 | 140.8208 | 220.0760 | 14.97413 | – |
| 2026 Apr 30 17:56 | 2026 Apr 26 18:51:46 | 97.3412 | 0.01061 | 9.1824 | 140.8208 | 220.0760 | 14.97413 | – |
| 2026 Apr 29 17:57 | 2026 Apr 21 07:20:45 | 97.3423 | 0.01056 | 8.8390 | 159.1845 | 220.0760 | 14.97413 | – |
| 2026 Apr 28 17:56 | 2026 Apr 21 07:20:45 | 97.3423 | 0.01056 | 8.8390 | 159.1845 | 220.0760 | 14.97413 | – |
| 2026 Apr 27 17:58 | 2026 Apr 21 07:20:45 | 97.3423 | 0.01056 | 8.8390 | 159.1845 | 220.0760 | 14.97413 | – |
| 2026 Apr 26 17:58 | 2026 Apr 21 07:20:45 | 97.3423 | 0.01056 | 8.8390 | 159.1845 | 220.0760 | 14.97413 | – |
| 2026 Apr 25 17:58 | 2026 Apr 21 07:20:45 | 97.3423 | 0.01056 | 8.8390 | 159.1845 | 220.0760 | 14.97413 | – |
| 2026 Apr 24 17:59 | 2026 Apr 21 07:20:45 | 97.3423 | 0.01056 | 8.8390 | 159.1845 | 220.0760 | 14.97413 | – |
| 2026 Apr 23 17:57 | 2026 Apr 17 11:55:10 | 97.3438 | 0.01053 | 8.6002 | 171.7857 | 220.0760 | 14.97413 | – |
| 2026 Apr 22 17:57 | 2026 Apr 17 11:55:10 | 97.3438 | 0.01053 | 8.6002 | 171.7857 | 220.0760 | 14.97413 | – |
| 2026 Apr 21 17:57 | 2026 Apr 17 11:55:10 | 97.3438 | 0.01053 | 8.6002 | 171.7857 | 220.0760 | 14.97413 | – |
| 2026 Apr 20 17:57 | 2026 Apr 17 11:55:10 | 97.3438 | 0.01053 | 8.6002 | 171.7857 | 220.0760 | 14.97413 | – |
| 2026 Apr 19 17:58 | 2026 Apr 17 11:55:10 | 97.3438 | 0.01053 | 8.6002 | 171.7857 | 220.0760 | 14.97413 | – |
| 2026 Apr 18 17:56 | 2026 Apr 11 06:44:37 | 97.3434 | 0.01049 | 8.2104 | 192.4975 | 220.0760 | 14.97413 | – |
| 2026 Apr 16 17:57 | 2026 Apr 11 06:44:37 | 97.3434 | 0.01049 | 8.2104 | 192.4975 | 220.0760 | 14.97413 | – |
| 2026 Apr 14 17:57 | 2026 Apr 11 06:44:37 | 97.3434 | 0.01049 | 8.2104 | 192.4975 | 220.0760 | 14.97413 | – |
| 2026 Apr 13 17:57 | 2026 Apr 11 06:44:37 | 97.3434 | 0.01049 | 8.2104 | 192.4975 | 220.0760 | 14.97413 | – |
| 2026 Apr 12 17:57 | 2026 Apr 02 19:00:38 | 97.3425 | 0.01048 | 7.6785 | 221.6069 | 220.0760 | 14.97413 | – |
| 2026 Apr 11 17:57 | 2026 Apr 02 19:00:38 | 97.3425 | 0.01048 | 7.6785 | 221.6069 | 220.0760 | 14.97413 | – |
| 2026 Apr 10 17:58 | 2026 Apr 02 19:00:38 | 97.3425 | 0.01048 | 7.6785 | 221.6069 | 220.0760 | 14.97413 | – |
| 2026 Apr 09 18:01 | 2026 Apr 02 19:00:38 | 97.3425 | 0.01048 | 7.6785 | 221.6069 | 220.0760 | 14.97413 | – |
| 2026 Apr 08 17:57 | 2026 Apr 02 19:00:38 | 97.3425 | 0.01048 | 7.6785 | 221.6069 | 220.0760 | 14.97413 | – |
| 2026 Apr 07 17:57 | 2026 Apr 01 18:56:41 | 97.3432 | 0.01048 | 7.6157 | 225.0634 | 220.0760 | 14.97413 | – |
| 2026 Apr 06 17:57 | 2026 Apr 01 18:56:41 | 97.3432 | 0.01048 | 7.6157 | 225.0634 | 220.0760 | 14.97413 | – |